Time;durP1;ratioP1;P1;durP2;ratioP2;P2;SDS_P1;SDS_P2;PMS_P1;PMS_P2;Temp;Humidity;BMP_temperature;BMP_pressure;BME280_temperature;BME280_humidity;BME280_pressure;Samples;Min_cycle;Max_cycle;Signal;HPM_P1;HPM_P2
2021/12/19 00:01:55;;;;;;;15.77;6.10;;;7.10;99.90;;;;;;5023641;28;20058;-88
2021/12/19 00:08:28;;;;;;;16.00;6.93;;;7.00;99.90;;;;;;5009645;28;20046;-88
2021/12/19 00:11:51;;;;;;;14.23;6.23;;;6.60;99.90;;;;;;5012653;28;20470;-88
2021/12/19 00:14:23;;;;;;;14.93;5.70;;;6.70;99.90;;;;;;4997834;28;20053;-88
2021/12/19 00:17:00;;;;;;;12.47;5.40;;;7.40;99.90;;;;;;4997187;28;20141;-87
2021/12/19 00:19:41;;;;;;;13.20;6.33;;;6.40;99.90;;;;;;4998095;28;20045;-88
2021/12/19 00:22:08;;;;;;;12.37;6.07;;;6.40;99.90;;;;;;4997714;28;20045;-88
2021/12/19 00:25:10;;;;;;;12.73;5.87;;;6.70;99.90;;;;;;4997467;28;20419;-88
2021/12/19 00:27:53;;;;;;;13.90;5.50;;;7.10;99.90;;;;;;5014731;28;20139;-88
2021/12/19 00:30:32;;;;;;;13.43;5.20;;;7.60;99.90;;;;;;4997507;28;20065;-88
2021/12/19 00:33:04;;;;;;;13.27;5.90;;;7.10;99.90;;;;;;5019586;28;20058;-88
2021/12/19 00:35:44;;;;;;;13.07;5.33;;;7.30;99.90;;;;;;5002217;28;20129;-88
2021/12/19 00:38:22;;;;;;;14.20;6.23;;;6.50;99.90;;;;;;5015047;28;20053;-88
2021/12/19 00:40:48;;;;;;;16.07;5.80;;;6.60;99.90;;;;;;4997634;28;20050;-88
2021/12/19 00:46:21;;;;;;;11.63;4.77;;;7.10;99.90;;;;;;5014672;28;20050;-87
2021/12/19 00:48:56;;;;;;;12.70;4.63;;;6.50;99.90;;;;;;4997347;28;20054;-88
2021/12/19 00:51:38;;;;;;;13.17;4.80;;;6.50;99.90;;;;;;4996538;28;20081;-88
2021/12/19 00:54:13;;;;;;;13.23;4.90;;;6.90;99.90;;;;;;4997581;28;20078;-87
2021/12/19 00:56:54;;;;;;;13.17;4.80;;;6.80;99.90;;;;;;4997879;28;20049;-88
2021/12/19 00:59:38;;;;;;;18.17;6.70;;;6.50;99.90;;;;;;4996428;28;20449;-87
2021/12/19 01:02:09;;;;;;;10.52;4.57;;;7.40;99.90;;;;;;5140289;22;20058;-87
2021/12/19 01:04:50;;;;;;;17.20;7.40;;;7.50;99.90;;;;;;5076535;28;20404;-88
2021/12/19 01:07:32;;;;;;;14.73;6.20;;;7.50;99.90;;;;;;5075446;28;20476;-87
2021/12/19 01:09:57;;;;;;;19.10;6.83;;;6.70;99.90;;;;;;5076110;28;20138;-87
2021/12/19 01:12:38;;;;;;;16.13;6.13;;;7.00;99.90;;;;;;5075457;28;20134;-87
2021/12/19 01:15:06;;;;;;;14.67;6.17;;;6.70;99.90;;;;;;5076241;28;20056;-88
2021/12/19 01:17:51;;;;;;;14.87;6.77;;;6.80;99.90;;;;;;5093933;28;20043;-87
2021/12/19 01:20:26;;;;;;;15.57;6.17;;;7.20;99.90;;;;;;5074975;28;20479;-87
2021/12/19 01:23:11;;;;;;;16.83;6.57;;;7.00;99.90;;;;;;5093684;28;20047;-87
2021/12/19 01:25:37;;;;;;;17.27;7.00;;;6.80;99.90;;;;;;5093260;28;20463;-88
2021/12/19 01:28:08;;;;;;;14.87;6.07;;;7.80;99.90;;;;;;5091578;28;20048;-87
2021/12/19 01:30:49;;;;;;;18.13;7.60;;;7.70;99.90;;;;;;5075446;28;20536;-88
2021/12/19 01:33:15;;;;;;;18.27;7.77;;;7.10;99.90;;;;;;5075064;28;20348;-88
2021/12/19 01:35:44;;;;;;;15.93;6.50;;;7.20;99.90;;;;;;5075837;28;20052;-87
2021/12/19 01:38:10;;;;;;;13.40;6.17;;;6.70;99.90;;;;;;5075919;28;20181;-88
2021/12/19 01:40:54;;;;;;;16.20;6.73;;;6.80;99.90;;;;;;5091486;28;20127;-87
2021/12/19 01:43:38;;;;;;;16.60;7.00;;;6.90;99.90;;;;;;5076119;28;20130;-87
2021/12/19 01:46:04;;;;;;;16.90;6.63;;;7.10;99.90;;;;;;5075164;28;20051;-87
2021/12/19 01:48:45;;;;;;;16.87;7.13;;;7.40;99.90;;;;;;5075035;28;20381;-87
2021/12/19 01:51:13;;;;;;;16.17;7.30;;;6.70;99.90;;;;;;5076109;28;20502;-87
2021/12/19 01:53:57;;;;;;;13.73;6.20;;;6.70;99.90;;;;;;5094026;28;20043;-87
2021/12/19 01:57:26;;;;;;;;;;;;;;;;;;;;;
2021/12/19 02:00:20;;;;;;;14.63;5.73;;;6.40;99.90;;;;;;5074016;28;20052;-87
2021/12/19 02:03:11;;;;;;;20.30;8.13;;;6.90;99.90;;;;;;5051125;28;20142;-87
2021/12/19 02:05:40;;;;;;;15.07;6.53;;;6.60;99.90;;;;;;5052902;28;20124;-87
2021/12/19 02:08:07;;;;;;;16.10;6.60;;;6.80;99.90;;;;;;5052289;28;20381;-88
2021/12/19 02:10:42;;;;;;;14.20;6.30;;;6.20;99.90;;;;;;5052022;28;20094;-86
2021/12/19 02:13:26;;;;;;;16.33;6.77;;;6.90;99.90;;;;;;5051735;28;20059;-88
2021/12/19 02:16:09;;;;;;;15.80;7.10;;;7.60;99.90;;;;;;5050598;28;20123;-87
2021/12/19 02:18:35;;;;;;;13.50;5.15;;;6.90;99.90;;;;;;5063708;22;20045;-87
2021/12/19 02:21:00;;;;;;;12.80;4.13;;;6.70;99.90;;;;;;5111431;28;20043;-86
2021/12/19 02:23:35;;;;;;;11.43;4.20;;;6.70;99.90;;;;;;5111800;28;20043;-87
2021/12/19 02:26:20;;;;;;;11.57;4.20;;;7.60;99.90;;;;;;5112456;28;20568;-87
2021/12/19 02:28:58;;;;;;;9.60;2.90;;;7.60;99.90;;;;;;5116828;28;20130;-87
2021/12/19 02:31:40;;;;;;;9.00;2.73;;;7.40;99.90;;;;;;5112555;28;20096;-87
2021/12/19 02:34:20;;;;;;;8.13;2.60;;;6.50;99.90;;;;;;5112094;28;20079;-87
2021/12/19 02:37:11;;;;;;;7.63;2.50;;;7.00;99.90;;;;;;5116175;28;20835;-88
2021/12/19 02:48:42;;;;;;;7.20;2.27;;;6.60;99.90;;;;;;5113857;28;20048;-87
2021/12/19 02:51:08;;;;;;;8.00;2.00;;;6.70;99.90;;;;;;5110859;28;20464;-86
2021/12/19 02:53:46;;;;;;;6.73;2.00;;;6.10;99.90;;;;;;5111611;28;20048;-87
2021/12/19 02:59:11;;;;;;;8.40;2.50;;;6.70;99.90;;;;;;5101729;22;20056;-88
2021/12/19 03:01:48;;;;;;;6.88;2.13;;;7.30;99.90;;;;;;5077684;28;20044;-87
2021/12/19 03:04:19;;;;;;;6.07;1.73;;;7.10;99.90;;;;;;5072531;28;20094;-88
2021/12/19 03:06:59;;;;;;;7.00;1.90;;;6.50;99.90;;;;;;5060975;28;20055;-87
2021/12/19 03:12:37;;;;;;;8.50;1.83;;;6.60;99.90;;;;;;5075279;28;20056;-87
2021/12/19 03:20:51;;;;;;;7.27;1.97;;;7.10;99.90;;;;;;5019175;28;20063;-87
2021/12/19 03:23:16;;;;;;;6.37;2.00;;;6.30;99.90;;;;;;5058060;28;20098;-88
2021/12/19 03:26:00;;;;;;;5.80;1.90;;;7.20;99.90;;;;;;5057413;28;20045;-87
2021/12/19 03:28:41;;;;;;;7.30;1.90;;;7.20;99.90;;;;;;5058388;28;20049;-87
2021/12/19 03:31:18;;;;;;;7.43;2.10;;;6.80;99.90;;;;;;5075738;28;20044;-87
2021/12/19 03:33:52;;;;;;;5.63;1.90;;;6.30;99.90;;;;;;5057597;28;20052;-87
2021/12/19 03:36:28;;;;;;;6.43;1.80;;;6.40;99.90;;;;;;5057802;28;20054;-87
2021/12/19 03:38:58;;;;;;;7.53;1.90;;;6.80;99.90;;;;;;5057693;28;20055;-88
2021/12/19 03:41:57;;;;;;;5.90;1.90;;;5.90;99.90;;;;;;5057234;28;20369;-87
2021/12/19 03:44:32;;;;;;;6.17;1.63;;;7.50;99.90;;;;;;5076117;28;20040;-87
2021/12/19 03:47:15;;;;;;;7.13;2.00;;;7.10;99.90;;;;;;5056720;28;20157;-87
2021/12/19 03:49:41;;;;;;;7.43;1.87;;;6.20;99.90;;;;;;5057920;28;20094;-87
2021/12/19 03:52:13;;;;;;;5.67;1.87;;;7.20;99.90;;;;;;5088072;22;20119;-88
2021/12/19 03:55:25;;;;;;;6.80;1.80;;;6.40;99.90;;;;;;5114221;28;20047;-87
2021/12/19 03:58:03;;;;;;;7.23;1.80;;;6.30;99.90;;;;;;5114799;28;20039;-87
2021/12/19 04:00:43;;;;;;;9.60;2.00;;;6.30;99.90;;;;;;5115080;28;20165;-88
2021/12/19 04:03:21;;;;;;;7.93;1.90;;;6.20;99.90;;;;;;5113998;28;20092;-88
2021/12/19 04:06:04;;;;;;;8.43;2.03;;;6.10;99.90;;;;;;5092150;22;20080;-88
2021/12/19 04:08:35;;;;;;;6.67;1.90;;;6.30;99.90;;;;;;5055587;28;20481;-88
2021/12/19 04:11:11;;;;;;;7.37;2.00;;;7.10;99.90;;;;;;5057099;28;20487;-88
2021/12/19 04:13:49;;;;;;;6.67;1.90;;;6.20;99.90;;;;;;5057372;28;20381;-88
2021/12/19 04:16:23;;;;;;;7.63;1.80;;;7.00;99.90;;;;;;5056576;28;20052;-88
2021/12/19 04:18:49;;;;;;;8.23;2.30;;;6.80;99.90;;;;;;5075169;28;20051;-88
2021/12/19 04:21:29;;;;;;;8.37;2.30;;;6.30;99.90;;;;;;5072304;22;20028;-87
2021/12/19 04:24:19;;;;;;;7.00;2.00;;;6.70;99.90;;;;;;5120031;28;20503;-88
2021/12/19 04:26:57;;;;;;;7.07;2.13;;;7.00;99.90;;;;;;5076388;28;20477;-88
2021/12/19 04:29:49;;;;;;;7.77;2.00;;;6.00;99.90;;;;;;5084449;28;20418;-88
2021/12/19 04:32:35;;;;;;;8.67;2.53;;;6.00;99.90;;;;;;5117160;28;20047;-88
2021/12/19 04:35:59;;;;;;;8.83;2.17;;;6.60;99.90;;;;;;5114076;28;20058;-88
2021/12/19 05:14:08;;;;;;;4.80;1.40;;;5.70;99.90;;;;;;5052253;28;20049;-87
2021/12/19 05:17:17;;;;;;;6.13;1.60;;;5.90;99.90;;;;;;5046753;23;20058;-87
2021/12/19 05:20:07;;;;;;;6.38;1.63;;;6.80;99.90;;;;;;5054286;28;20053;-87
2021/12/19 05:23:09;;;;;;;6.60;1.60;;;6.00;99.90;;;;;;5054974;28;20068;-87
2021/12/19 05:25:56;;;;;;;7.10;1.70;;;6.90;99.90;;;;;;5055129;28;20124;-87
2021/12/19 05:28:33;;;;;;;7.93;2.00;;;6.10;99.90;;;;;;5056064;28;20048;-87
2021/12/19 05:31:18;;;;;;;9.93;2.23;;;5.90;99.90;;;;;;5055276;28;20128;-87
2021/12/19 05:33:47;;;;;;;7.90;2.20;;;6.10;99.90;;;;;;5056653;28;20072;-88
2021/12/19 05:45:43;;;;;;;8.00;2.67;;;6.00;99.90;;;;;;5055492;28;20041;-87
2021/12/19 05:48:30;;;;;;;10.43;2.60;;;5.00;99.90;;;;;;5054696;28;20090;-87
2021/12/19 05:51:11;;;;;;;10.37;3.00;;;5.70;99.90;;;;;;5055028;28;20040;-87
2021/12/19 05:53:49;;;;;;;10.87;2.97;;;5.50;99.90;;;;;;5072146;28;20392;-88
2021/12/19 05:57:06;;;;;;;11.20;3.30;;;5.60;99.90;;;;;;5087333;22;20068;-88
2021/12/19 05:59:58;;;;;;;11.27;3.20;;;6.00;99.90;;;;;;5095041;28;20036;-87
2021/12/19 06:03:10;;;;;;;13.00;3.03;;;6.10;99.90;;;;;;5076059;28;20056;-88
2021/12/19 06:06:00;;;;;;;16.70;3.50;;;6.20;99.90;;;;;;5051861;28;20056;-88
2021/12/19 06:08:41;;;;;;;12.73;3.67;;;6.20;99.90;;;;;;5075036;28;20036;-88
2021/12/19 06:11:16;;;;;;;15.20;4.17;;;6.00;99.90;;;;;;5075200;28;20040;-87
2021/12/19 06:14:00;;;;;;;14.57;4.13;;;6.40;99.90;;;;;;5075396;28;20700;-87
2021/12/19 06:16:38;;;;;;;12.00;4.20;;;5.30;99.90;;;;;;5094238;28;20040;-88
2021/12/19 06:19:19;;;;;;;15.70;4.73;;;6.70;99.90;;;;;;5080556;28;20182;-86
2021/12/19 06:22:33;;;;;;;18.70;5.30;;;7.10;99.90;;;;;;5074843;28;20051;-87
2021/12/19 06:25:14;;;;;;;16.23;5.10;;;6.30;99.90;;;;;;5075603;28;20047;-88
2021/12/19 06:27:46;;;;;;;15.07;4.93;;;6.00;99.90;;;;;;5083135;28;20047;-87
2021/12/19 06:30:30;;;;;;;15.93;5.17;;;5.60;99.90;;;;;;5076194;28;20048;-88
2021/12/19 06:33:14;;;;;;;15.13;5.38;;;6.50;99.90;;;;;;5076758;28;20083;-87
2021/12/19 06:35:58;;;;;;;19.63;6.10;;;6.70;99.90;;;;;;5083033;22;20125;-87
2021/12/19 06:38:31;;;;;;;14.65;5.30;;;7.40;99.90;;;;;;5076695;28;20055;-87
2021/12/19 06:41:03;;;;;;;16.33;5.90;;;6.20;99.90;;;;;;5075959;28;20083;-88
2021/12/19 06:43:30;;;;;;;22.13;6.43;;;6.00;99.90;;;;;;5075124;28;20060;-88
2021/12/19 06:46:05;;;;;;;16.00;6.50;;;6.10;99.90;;;;;;5070791;22;20110;-88
2021/12/19 06:48:51;;;;;;;18.77;6.93;;;6.80;99.90;;;;;;5074297;28;20051;-87
2021/12/19 06:51:25;;;;;;;17.17;7.13;;;6.30;99.90;;;;;;5054638;28;20056;-87
2021/12/19 06:54:02;;;;;;;18.90;6.27;;;6.70;99.90;;;;;;5055197;28;20451;-86
2021/12/19 06:56:42;;;;;;;21.67;7.17;;;6.90;99.90;;;;;;5054942;28;20052;-87
2021/12/19 06:59:23;;;;;;;21.07;7.33;;;6.10;99.90;;;;;;5073037;28;20091;-87
2021/12/19 07:02:01;;;;;;;23.60;7.30;;;6.30;99.90;;;;;;5054775;28;20041;-87
2021/12/19 07:04:40;;;;;;;22.63;6.93;;;6.20;99.90;;;;;;5054444;28;20544;-86
2021/12/19 07:07:21;;;;;;;22.83;7.97;;;7.20;99.90;;;;;;5056206;28;20139;-87
2021/12/19 07:10:05;;;;;;;22.23;8.00;;;6.10;99.90;;;;;;5055107;28;20047;-87
2021/12/19 07:12:48;;;;;;;20.23;7.82;;;6.30;99.90;;;;;;5046268;22;20045;-87
2021/12/19 07:15:32;;;;;;;22.80;7.50;;;5.70;99.90;;;;;;5035431;28;20135;-86
2021/12/19 07:18:06;;;;;;;25.50;7.47;;;6.90;99.90;;;;;;5034217;28;20554;-87
2021/12/19 07:20:44;;;;;;;22.00;7.23;;;6.30;99.90;;;;;;5034960;28;20051;-87
2021/12/19 07:23:20;;;;;;;20.57;6.40;;;6.20;99.90;;;;;;5053021;28;20128;-85
2021/12/19 07:25:46;;;;;;;20.20;6.90;;;6.10;99.90;;;;;;5036276;28;20044;-88
2021/12/19 07:28:20;;;;;;;19.40;7.20;;;6.20;99.90;;;;;;5036414;28;20055;-88
2021/12/19 07:31:01;;;;;;;18.17;6.67;;;5.90;99.90;;;;;;5034779;28;20049;-87
2021/12/19 07:36:01;;;;;;;22.43;7.50;;;6.30;99.90;;;;;;5135483;22;20446;-86
2021/12/19 07:38:40;;;;;;;24.37;7.53;;;6.00;99.90;;;;;;5099477;28;20043;-86
2021/12/19 07:41:44;;;;;;;19.60;6.78;;;6.00;99.90;;;;;;5066685;28;20414;-86
2021/12/19 07:44:22;;;;;;;23.50;7.33;;;6.30;99.90;;;;;;5070341;22;20055;-85
2021/12/19 07:46:51;;;;;;;20.27;7.67;;;7.70;99.90;;;;;;5096903;28;20094;-82
2021/12/19 07:49:33;;;;;;;21.53;6.57;;;6.00;99.90;;;;;;5115833;28;20065;-81
2021/12/19 07:52:03;;;;;;;22.10;6.37;;;7.30;99.90;;;;;;5097652;28;20047;-82
2021/12/19 07:54:37;;;;;;;17.40;5.70;;;6.40;99.90;;;;;;5097224;28;20050;-83
2021/12/19 07:57:12;;;;;;;19.40;5.97;;;5.90;99.90;;;;;;5097179;28;20035;-83
2021/12/19 07:59:59;;;;;;;15.80;5.57;;;6.20;99.90;;;;;;5097229;28;20510;-83
2021/12/19 08:02:25;;;;;;;22.23;5.80;;;7.50;99.90;;;;;;5077165;28;20082;-83
2021/12/19 08:05:06;;;;;;;19.53;5.70;;;6.20;99.90;;;;;;5080151;28;20044;-83
2021/12/19 08:07:59;;;;;;;15.13;5.33;;;6.30;99.90;;;;;;5096772;28;20036;-82
2021/12/19 08:12:50;;;;;;;16.33;4.33;;;6.40;99.90;;;;;;5100443;28;20066;-83
2021/12/19 08:15:16;;;;;;;17.23;4.83;;;6.50;99.90;;;;;;5096532;28;20035;-84
2021/12/19 08:17:41;;;;;;;14.27;4.63;;;6.40;99.90;;;;;;5097142;28;20082;-83
2021/12/19 08:20:09;;;;;;;16.23;4.53;;;6.50;99.90;;;;;;5097097;28;20082;-83
2021/12/19 08:22:36;;;;;;;14.03;4.60;;;6.40;99.90;;;;;;5098013;28;20450;-82
2021/12/19 08:25:03;;;;;;;13.50;4.53;;;6.40;99.90;;;;;;5093592;28;20399;-82
2021/12/19 08:27:30;;;;;;;18.77;5.40;;;6.50;99.90;;;;;;5096133;28;20046;-82
2021/12/19 08:29:55;;;;;;;16.50;4.67;;;6.40;99.90;;;;;;5095070;28;20499;-83
2021/12/19 08:32:25;;;;;;;15.20;4.70;;;6.50;99.90;;;;;;5093173;28;20044;-82
2021/12/19 08:34:51;;;;;;;15.30;4.50;;;6.50;99.90;;;;;;5093309;28;20093;-82
2021/12/19 08:37:17;;;;;;;16.80;4.97;;;6.50;99.90;;;;;;5092345;28;20040;-83
2021/12/19 08:39:44;;;;;;;16.40;5.20;;;6.50;99.90;;;;;;5093594;28;20055;-87
2021/12/19 08:42:10;;;;;;;16.50;4.97;;;6.50;99.90;;;;;;5093629;28;20053;-82
2021/12/19 08:44:36;;;;;;;15.73;5.00;;;6.50;99.90;;;;;;5109889;28;20059;-83
2021/12/19 08:47:02;;;;;;;23.60;8.37;;;6.50;99.90;;;;;;5094626;28;20040;-82
2021/12/19 08:49:28;;;;;;;18.33;4.83;;;6.50;99.90;;;;;;5091592;28;20047;-82
2021/12/19 08:51:54;;;;;;;18.67;7.03;;;6.50;99.90;;;;;;5087095;28;20059;-82
2021/12/19 08:54:21;;;;;;;19.97;7.50;;;6.50;99.90;;;;;;5092398;28;20048;-84
2021/12/19 08:56:46;;;;;;;18.40;4.50;;;6.50;99.90;;;;;;5092134;28;20055;-84
2021/12/19 08:59:15;;;;;;;16.00;5.17;;;6.50;99.90;;;;;;5092825;28;20047;-84
2021/12/19 09:01:54;;;;;;;16.03;4.43;;;5.60;99.90;;;;;;5118165;28;20062;-81
2021/12/19 09:04:20;;;;;;;17.37;4.43;;;6.30;99.90;;;;;;5101907;28;20044;-82
2021/12/19 09:06:45;;;;;;;17.10;4.57;;;6.50;99.90;;;;;;5093437;28;20047;-82
2021/12/19 09:09:11;;;;;;;15.53;4.47;;;6.60;99.90;;;;;;5093268;28;20044;-82
2021/12/19 09:11:37;;;;;;;16.60;4.27;;;6.60;99.90;;;;;;5092205;28;20043;-83
2021/12/19 09:14:03;;;;;;;15.93;4.37;;;6.60;99.90;;;;;;5092078;28;20439;-82
2021/12/19 09:16:29;;;;;;;15.77;4.13;;;6.60;99.90;;;;;;5093038;28;20490;-82
2021/12/19 09:18:55;;;;;;;14.50;3.97;;;6.60;99.90;;;;;;5091450;28;20052;-83
2021/12/19 09:21:20;;;;;;;13.93;4.03;;;6.60;99.90;;;;;;5092735;28;20052;-82
2021/12/19 09:23:46;;;;;;;18.57;4.30;;;6.70;99.90;;;;;;5092357;28;20036;-82
2021/12/19 09:26:13;;;;;;;12.37;3.97;;;6.60;99.90;;;;;;5091459;28;20065;-82
2021/12/19 09:28:39;;;;;;;14.67;3.83;;;6.70;99.90;;;;;;5093668;28;20052;-82
2021/12/19 09:31:05;;;;;;;19.77;4.17;;;6.70;99.90;;;;;;5092324;28;20400;-82
2021/12/19 09:33:30;;;;;;;15.57;4.53;;;6.70;99.90;;;;;;5091345;28;20044;-82
2021/12/19 09:35:59;;;;;;;15.27;4.60;;;6.70;99.90;;;;;;5093175;28;20048;-82
2021/12/19 09:38:26;;;;;;;16.40;3.80;;;6.70;99.90;;;;;;5092019;28;20047;-82
2021/12/19 09:40:59;;;;;;;17.20;4.87;;;6.70;99.90;;;;;;5092877;28;20044;-82
2021/12/19 09:43:43;;;;;;;16.50;4.37;;;6.70;99.90;;;;;;5092889;28;20105;-83
2021/12/19 09:46:18;;;;;;;15.83;4.30;;;6.70;99.90;;;;;;5090851;28;20055;-82
2021/12/19 09:48:48;;;;;;;17.57;4.80;;;6.70;99.90;;;;;;5091412;28;20480;-83
2021/12/19 09:51:17;;;;;;;15.23;4.30;;;6.70;99.90;;;;;;5091916;28;20044;-82
2021/12/19 09:53:43;;;;;;;20.17;4.40;;;6.70;99.90;;;;;;5090971;28;20094;-82
2021/12/19 09:56:10;;;;;;;15.73;4.03;;;6.70;99.90;;;;;;5091742;28;20048;-82
2021/12/19 09:58:37;;;;;;;17.60;4.57;;;6.70;99.90;;;;;;5092020;28;20047;-82
2021/12/19 10:01:05;;;;;;;18.60;6.33;;;6.70;99.90;;;;;;5090568;28;20051;-83
2021/12/19 10:03:30;;;;;;;14.57;4.30;;;6.70;99.90;;;;;;5093309;28;20098;-82
2021/12/19 10:06:23;;;;;;;14.33;4.20;;;7.20;99.90;;;;;;5090348;28;20048;-82
2021/12/19 10:09:10;;;;;;;16.70;4.30;;;6.90;99.90;;;;;;5093367;28;20047;-81
2021/12/19 10:14:41;;;;;;;12.33;3.60;;;7.30;99.90;;;;;;5090891;28;20052;-81
2021/12/19 10:17:19;;;;;;;12.50;3.27;;;6.80;99.90;;;;;;5080038;28;20036;-82
2021/12/19 10:19:53;;;;;;;15.17;4.30;;;7.10;99.90;;;;;;5092246;28;20498;-82
2021/12/19 10:22:35;;;;;;;14.47;4.00;;;6.80;99.90;;;;;;5073862;28;20032;-81
2021/12/19 10:25:22;;;;;;;12.83;3.43;;;6.80;99.90;;;;;;5074712;28;20311;-82
2021/12/19 10:27:50;;;;;;;13.40;4.00;;;6.90;99.90;;;;;;5091632;28;20048;-82
2021/12/19 10:30:29;;;;;;;11.17;3.27;;;6.90;99.90;;;;;;5092804;28;20086;-82
2021/12/19 10:33:08;;;;;;;17.67;3.90;;;6.90;99.90;;;;;;5074162;28;20055;-82
2021/12/19 10:35:42;;;;;;;16.60;3.87;;;6.90;99.90;;;;;;5073825;28;20044;-82
2021/12/19 10:38:20;;;;;;;12.90;3.57;;;6.90;99.90;;;;;;5074202;28;20518;-83
2021/12/19 10:41:10;;;;;;;12.87;3.60;;;6.90;99.90;;;;;;5074065;28;20429;-82
2021/12/19 10:43:51;;;;;;;15.07;3.60;;;6.90;99.90;;;;;;5073854;28;20040;-84
2021/12/19 10:46:27;;;;;;;13.50;3.50;;;6.90;99.90;;;;;;5089822;28;20048;-84
2021/12/19 10:48:53;;;;;;;13.47;3.30;;;6.90;99.90;;;;;;5090391;28;20093;-83
2021/12/19 10:51:20;;;;;;;14.30;4.03;;;6.90;99.90;;;;;;5093856;28;20039;-83
2021/12/19 10:53:57;;;;;;;16.97;3.83;;;6.90;99.90;;;;;;5101294;28;20044;-83
2021/12/19 10:56:26;;;;;;;15.40;3.80;;;6.90;99.90;;;;;;5090547;28;20135;-83
2021/12/19 10:58:57;;;;;;;16.00;3.70;;;6.90;99.90;;;;;;5091768;28;20036;-82
2021/12/19 11:01:28;;;;;;;13.00;3.80;;;6.90;99.90;;;;;;5091846;28;20035;-83
2021/12/19 11:03:56;;;;;;;13.50;3.43;;;7.00;99.90;;;;;;5091272;28;20547;-82
2021/12/19 11:06:25;;;;;;;15.57;3.27;;;7.00;99.90;;;;;;5090836;28;20544;-83
2021/12/19 11:08:53;;;;;;;13.33;3.30;;;7.00;99.90;;;;;;5091074;28;20043;-83
2021/12/19 11:11:43;;;;;;;12.80;3.27;;;6.90;99.90;;;;;;5093044;28;20138;-83
2021/12/19 11:14:11;;;;;;;11.50;3.00;;;7.00;99.90;;;;;;5093797;28;20039;-83
2021/12/19 11:16:38;;;;;;;15.80;3.37;;;7.00;99.90;;;;;;5112998;28;20051;-83
2021/12/19 11:19:04;;;;;;;14.00;3.33;;;7.10;99.90;;;;;;5095156;28;20045;-83
2021/12/19 11:21:33;;;;;;;12.33;3.03;;;7.30;99.90;;;;;;5095328;28;20483;-84
2021/12/19 11:24:01;;;;;;;13.90;3.13;;;7.10;99.90;;;;;;5095861;28;20043;-83
2021/12/19 11:26:27;;;;;;;16.53;3.70;;;7.10;99.90;;;;;;5095782;28;20443;-83
2021/12/19 11:28:55;;;;;;;14.37;3.00;;;7.70;99.90;;;;;;5096523;28;20127;-84
2021/12/19 11:31:21;;;;;;;12.90;2.77;;;7.10;99.90;;;;;;5105468;28;20097;-84
2021/12/19 11:34:14;;;;;;;11.33;3.00;;;7.10;99.90;;;;;;5097924;28;20122;-84
2021/12/19 11:36:43;;;;;;;13.20;3.30;;;7.10;99.90;;;;;;5095931;28;20055;-83
2021/12/19 11:39:11;;;;;;;14.63;3.07;;;7.10;99.90;;;;;;5093356;28;20080;-83
2021/12/19 11:41:39;;;;;;;10.80;2.57;;;7.10;99.90;;;;;;5107296;28;20040;-83
2021/12/19 11:44:08;;;;;;;11.30;2.53;;;7.10;99.90;;;;;;5103976;28;20040;-83
2021/12/19 11:46:52;;;;;;;12.13;2.67;;;7.10;99.90;;;;;;5104939;28;20124;-83
2021/12/19 11:49:27;;;;;;;12.05;2.63;;;7.10;99.90;;;;;;5095621;28;20049;-83
2021/12/19 11:52:27;;;;;;;11.47;2.73;;;7.10;99.90;;;;;;5095524;28;20036;-83
2021/12/19 11:55:27;;;;;;;12.07;2.87;;;7.20;99.90;;;;;;5048491;28;20138;-83
2021/12/19 11:58:08;;;;;;;12.87;2.83;;;7.20;99.90;;;;;;5050760;28;20051;-83
2021/12/19 12:00:47;;;;;;;12.20;2.57;;;7.20;99.90;;;;;;5092820;28;20043;-83
2021/12/19 12:03:12;;;;;;;9.00;2.40;;;7.20;99.90;;;;;;5112678;28;20023;-82
2021/12/19 12:05:38;;;;;;;12.53;2.83;;;7.20;99.90;;;;;;5108898;28;20139;-84
2021/12/19 12:08:10;;;;;;;10.23;2.50;;;7.20;99.90;;;;;;5097921;28;20044;-83
2021/12/19 12:10:51;;;;;;;12.70;2.87;;;7.30;99.90;;;;;;5101655;28;20070;-84
2021/12/19 12:13:26;;;;;;;13.10;2.70;;;7.30;99.90;;;;;;5115220;28;20104;-84
2021/12/19 12:16:02;;;;;;;13.30;2.67;;;7.30;99.90;;;;;;5097066;28;20101;-84
2021/12/19 12:18:35;;;;;;;13.47;2.67;;;7.30;99.90;;;;;;5097206;28;20035;-84
2021/12/19 12:23:56;;;;;;;11.05;3.13;;;7.30;99.90;;;;;;5113461;28;20051;-84
2021/12/19 12:26:54;;;;;;;13.00;2.93;;;7.40;99.90;;;;;;5096987;28;20055;-84
2021/12/19 12:29:21;;;;;;;16.60;2.90;;;7.30;99.90;;;;;;5095752;28;20051;-84
2021/12/19 12:31:47;;;;;;;15.07;3.40;;;7.30;99.90;;;;;;5097029;28;20047;-85
2021/12/19 12:34:16;;;;;;;18.67;3.47;;;7.30;99.90;;;;;;5097175;28;20078;-84
2021/12/19 12:36:41;;;;;;;15.03;3.30;;;7.40;99.90;;;;;;5095947;28;20051;-84
2021/12/19 12:39:15;;;;;;;14.20;3.07;;;7.30;99.90;;;;;;5096474;28;20039;-85
2021/12/19 12:44:21;;;;;;;16.50;3.13;;;7.40;99.90;;;;;;5093889;28;20117;-83
2021/12/19 12:46:49;;;;;;;15.43;3.17;;;7.30;99.90;;;;;;5096083;28;20043;-83
2021/12/19 12:49:20;;;;;;;15.17;3.33;;;7.30;99.90;;;;;;5095685;28;20096;-84
2021/12/19 12:51:47;;;;;;;12.33;2.90;;;7.40;99.90;;;;;;5095676;28;20096;-84
2021/12/19 12:54:15;;;;;;;12.70;2.73;;;7.40;99.90;;;;;;5096576;28;20036;-83
2021/12/19 12:56:47;;;;;;;20.60;3.40;;;7.30;99.90;;;;;;5095271;28;20087;-83
2021/12/19 12:59:14;;;;;;;15.73;3.27;;;7.40;99.90;;;;;;5096047;28;20048;-84
2021/12/19 13:01:47;;;;;;;16.43;2.93;;;7.40;99.90;;;;;;5096104;28;20130;-84
2021/12/19 13:04:26;;;;;;;18.45;3.13;;;7.30;99.90;;;;;;5096180;28;20039;-84
2021/12/19 13:07:08;;;;;;;15.87;3.70;;;7.30;99.90;;;;;;5095773;28;20500;-83
2021/12/19 13:09:43;;;;;;;15.73;3.63;;;7.30;99.90;;;;;;5095277;28;20079;-84
2021/12/19 13:12:18;;;;;;;17.83;3.53;;;7.30;99.90;;;;;;5092888;28;20039;-83
2021/12/19 13:14:58;;;;;;;16.00;3.27;;;7.30;99.90;;;;;;5092608;28;20051;-84
2021/12/19 13:17:32;;;;;;;15.17;3.37;;;7.30;99.90;;;;;;5092225;28;20076;-84
2021/12/19 13:20:06;;;;;;;15.63;3.37;;;7.30;99.90;;;;;;5090800;28;20074;-84
2021/12/19 13:22:35;;;;;;;18.33;3.78;;;7.30;99.90;;;;;;5094975;28;20039;-84
2021/12/19 13:25:08;;;;;;;16.87;3.43;;;7.30;99.90;;;;;;5090272;28;20073;-84
2021/12/19 13:27:36;;;;;;;16.23;3.58;;;7.30;99.90;;;;;;5092407;28;20130;-84
2021/12/19 13:30:12;;;;;;;16.90;3.47;;;7.30;99.90;;;;;;5095358;28;20040;-84
2021/12/19 13:33:18;;;;;;;12.80;3.20;;;7.30;99.90;;;;;;5095225;28;20043;-83
2021/12/19 13:35:50;;;;;;;16.53;3.20;;;7.30;99.90;;;;;;5089947;28;20057;-84
2021/12/19 13:38:27;;;;;;;16.97;2.87;;;7.30;99.90;;;;;;5095158;28;20130;-83
2021/12/19 13:41:06;;;;;;;16.17;4.20;;;7.30;99.90;;;;;;5094318;28;20419;-84
2021/12/19 13:43:34;;;;;;;15.60;3.60;;;7.30;99.90;;;;;;5092313;28;20035;-82
2021/12/19 13:46:06;;;;;;;15.53;3.13;;;7.30;99.90;;;;;;5090526;28;21007;-83
2021/12/19 13:48:33;;;;;;;19.87;3.80;;;7.30;99.90;;;;;;5094757;28;20589;-83
2021/12/19 13:51:02;;;;;;;18.97;3.57;;;7.20;99.90;;;;;;5095131;28;20035;-83
2021/12/19 13:53:31;;;;;;;16.23;3.27;;;7.30;99.90;;;;;;5094743;28;20044;-83
2021/12/19 13:56:00;;;;;;;14.70;3.53;;;7.20;99.90;;;;;;5096744;28;20047;-83
2021/12/19 13:58:32;;;;;;;14.90;3.20;;;7.20;99.90;;;;;;5094243;28;20042;-82
2021/12/19 14:01:08;;;;;;;18.87;3.67;;;7.20;99.90;;;;;;5094187;28;20048;-83
2021/12/19 14:03:43;;;;;;;18.47;3.20;;;7.20;99.90;;;;;;5095102;28;20050;-82
2021/12/19 14:06:10;;;;;;;17.93;3.73;;;7.20;99.90;;;;;;5095937;28;20047;-83
2021/12/19 14:08:36;;;;;;;18.23;3.30;;;7.20;99.90;;;;;;5095087;28;20039;-82
2021/12/19 14:11:16;;;;;;;22.27;3.60;;;7.20;99.90;;;;;;5095037;28;20031;-83
2021/12/19 14:13:56;;;;;;;23.77;4.33;;;7.20;99.90;;;;;;5094309;28;20051;-82
2021/12/19 14:16:28;;;;;;;14.30;3.30;;;7.20;99.90;;;;;;5095206;28;20102;-83
2021/12/19 14:18:54;;;;;;;22.80;3.80;;;7.20;99.90;;;;;;5093271;28;20083;-83
2021/12/19 14:21:33;;;;;;;14.77;3.43;;;7.30;99.90;;;;;;5073058;28;20090;-84
2021/12/19 14:24:25;;;;;;;21.13;3.93;;;7.20;99.90;;;;;;5074108;28;20051;-84
2021/12/19 14:27:05;;;;;;;13.30;3.53;;;7.20;99.90;;;;;;5073473;28;20411;-84
2021/12/19 14:29:31;;;;;;;23.60;4.40;;;7.20;99.90;;;;;;5074247;28;20052;-84
2021/12/19 14:32:07;;;;;;;17.60;3.60;;;7.20;99.90;;;;;;5073983;28;20399;-84
2021/12/19 14:34:34;;;;;;;14.70;3.17;;;8.00;99.90;;;;;;5073191;28;20105;-83
2021/12/19 14:37:22;;;;;;;17.83;3.87;;;7.30;99.90;;;;;;5073934;28;20036;-84
2021/12/19 14:40:06;;;;;;;18.50;3.77;;;7.30;99.90;;;;;;5073945;28;20051;-84
2021/12/19 14:43:07;;;;;;;18.15;4.10;;;7.20;99.90;;;;;;5073575;28;20044;-84
2021/12/19 14:45:53;;;;;;;29.03;12.70;;;7.20;99.90;;;;;;5074063;28;20059;-84
2021/12/19 14:48:37;;;;;;;25.67;16.77;;;7.30;99.90;;;;;;5073055;28;20802;-83
2021/12/19 14:51:08;;;;;;;23.48;9.65;;;7.30;99.90;;;;;;5074014;28;20054;-84
2021/12/19 14:53:45;;;;;;;26.83;6.80;;;7.30;99.90;;;;;;5078115;28;20042;-84
2021/12/19 14:56:24;;;;;;;18.80;5.40;;;7.30;99.90;;;;;;5077360;28;20044;-84
2021/12/19 14:58:58;;;;;;;22.60;8.20;;;7.20;99.90;;;;;;5078109;28;20075;-84
2021/12/19 15:01:37;;;;;;;20.27;6.57;;;7.30;99.90;;;;;;5078183;28;20043;-83
2021/12/19 15:04:06;;;;;;;21.23;4.53;;;7.30;99.90;;;;;;5089372;28;20043;-84